createdAt,value
2018-08-04T00:00:25.485Z,21.96
2018-08-04T00:00:56.647Z,21.97
2018-08-04T00:01:27.812Z,22.02
2018-08-04T00:01:58.987Z,22.04
2018-08-04T00:02:30.124Z,22.05
2018-08-04T00:03:01.289Z,22.08
2018-08-04T00:03:32.457Z,22.08
2018-08-04T00:04:03.632Z,22.07
2018-08-04T00:04:34.864Z,22.06
2018-08-04T00:05:06.084Z,22.04
2018-08-04T00:05:37.258Z,22.04
2018-08-04T00:06:08.453Z,22.02
2018-08-04T00:06:39.627Z,22.01
2018-08-04T00:07:10.888Z,22.01
2018-08-04T00:07:42.130Z,22.00
2018-08-04T00:08:13.313Z,22.00
2018-08-04T00:08:44.422Z,22.01
2018-08-04T00:09:15.538Z,22.01
2018-08-04T00:09:46.682Z,22.03
2018-08-04T00:10:17.851Z,22.02
2018-08-04T00:10:49.018Z,22.01
2018-08-04T00:11:20.246Z,21.99
2018-08-04T00:11:51.488Z,22.00
2018-08-04T00:12:22.773Z,21.99
2018-08-04T00:12:53.896Z,22.02
2018-08-04T00:13:25.063Z,22.05
2018-08-04T00:13:56.239Z,22.09
2018-08-04T00:14:27.451Z,22.13
2018-08-04T00:14:59.092Z,22.16
2018-08-04T00:15:30.256Z,22.17
2018-08-04T00:16:01.490Z,22.23
2018-08-04T00:16:32.615Z,22.27
2018-08-04T00:17:03.780Z,22.31
2018-08-04T00:17:34.929Z,22.31
2018-08-04T00:18:06.151Z,22.28
2018-08-04T00:18:37.386Z,22.27
2018-08-04T00:19:08.565Z,22.30
2018-08-04T00:19:39.796Z,22.32
2018-08-04T00:20:11.320Z,22.32
2018-08-04T00:20:42.532Z,22.35
2018-08-04T00:21:14.066Z,22.37
2018-08-04T00:21:45.311Z,22.38
2018-08-04T00:22:16.497Z,22.37
2018-08-04T00:22:47.624Z,22.38
2018-08-04T00:23:18.739Z,22.35
2018-08-04T00:23:49.883Z,22.34
2018-08-04T00:24:21.052Z,22.33
2018-08-04T00:24:52.312Z,22.32
2018-08-04T00:25:23.546Z,22.31
2018-08-04T00:25:54.720Z,22.28
2018-08-04T00:26:25.908Z,22.27
2018-08-04T00:26:57.133Z,22.24
2018-08-04T00:27:28.265Z,22.24
2018-08-04T00:27:59.378Z,22.22
2018-08-04T00:28:30.495Z,22.21
2018-08-04T00:29:01.657Z,22.21
2018-08-04T00:29:32.833Z,22.22
2018-08-04T00:30:04.000Z,22.21
2018-08-04T00:30:35.235Z,22.18
2018-08-04T00:31:06.354Z,22.03
2018-08-04T00:31:37.456Z,22.14
2018-08-04T00:32:08.631Z,22.15
2018-08-04T00:32:39.812Z,22.16
2018-08-04T00:33:11.032Z,22.18
2018-08-04T00:33:42.297Z,22.21
2018-08-04T00:34:13.512Z,22.24
2018-08-04T00:34:44.624Z,22.25
2018-08-04T00:35:15.792Z,22.27
2018-08-04T00:35:46.945Z,22.28
2018-08-04T00:36:18.104Z,22.27
2018-08-04T00:36:49.215Z,22.27
2018-08-04T00:37:20.332Z,22.26
2018-08-04T00:37:51.451Z,22.24
2018-08-04T00:38:22.608Z,22.22
2018-08-04T00:38:53.726Z,22.21
2018-08-04T00:39:24.888Z,22.19
2018-08-04T00:39:56.133Z,22.19
2018-08-04T00:40:27.252Z,22.15
2018-08-04T00:40:58.467Z,22.12
2018-08-04T00:41:29.632Z,22.08
2018-08-04T00:42:00.812Z,22.05
2018-08-04T00:42:31.924Z,22.04
2018-08-04T00:43:03.096Z,22.01
2018-08-04T00:43:34.316Z,21.98
2018-08-04T00:44:05.491Z,21.95
2018-08-04T00:44:36.729Z,21.92
2018-08-04T00:45:07.854Z,21.91
2018-08-04T00:45:39.021Z,21.90
2018-08-04T00:46:10.139Z,21.88
2018-08-04T00:46:41.365Z,21.83
2018-08-04T00:47:12.490Z,21.84
2018-08-04T00:47:43.651Z,21.83
2018-08-04T00:48:14.832Z,21.82
2018-08-04T00:48:45.953Z,21.81
2018-08-04T00:49:17.185Z,21.80
2018-08-04T00:49:48.361Z,21.80
2018-08-04T00:50:19.519Z,21.79
2018-08-04T00:50:50.731Z,21.80
2018-08-04T00:51:21.849Z,21.82
2018-08-04T00:51:52.964Z,21.83
2018-08-04T00:52:24.193Z,21.84
2018-08-04T00:52:55.310Z,21.86
2018-08-04T00:53:26.429Z,21.89
2018-08-04T00:53:57.563Z,21.91
2018-08-04T00:54:28.677Z,21.92
2018-08-04T00:54:59.790Z,21.91
2018-08-04T00:55:30.895Z,21.90
2018-08-04T00:56:02.116Z,21.90
2018-08-04T00:56:33.276Z,21.89
2018-08-04T00:57:04.489Z,21.92
2018-08-04T00:57:35.692Z,21.92
2018-08-04T00:58:06.807Z,21.92
2018-08-04T00:58:38.033Z,21.78
2018-08-04T00:59:09.204Z,21.94
2018-08-04T00:59:40.384Z,21.91
2018-08-04T01:00:11.495Z,21.90
2018-08-04T01:00:42.611Z,21.87
2018-08-04T01:01:13.808Z,21.84
2018-08-04T01:01:44.935Z,21.83
2018-08-04T01:02:16.139Z,21.83
2018-08-04T01:02:47.314Z,21.83
2018-08-04T01:03:18.486Z,21.81
2018-08-04T01:03:49.672Z,21.82
2018-08-04T01:04:20.848Z,21.80
2018-08-04T01:04:51.971Z,21.76
2018-08-04T01:05:23.087Z,21.76
2018-08-04T01:05:54.257Z,21.77
2018-08-04T01:06:25.380Z,21.76
2018-08-04T01:06:56.653Z,21.76
2018-08-04T01:07:27.882Z,21.78
2018-08-04T01:07:59.120Z,21.80
2018-08-04T01:08:30.296Z,21.79
2018-08-04T01:09:01.466Z,21.79
2018-08-04T01:09:32.582Z,21.79
2018-08-04T01:10:03.796Z,21.80
2018-08-04T01:10:34.932Z,21.79
2018-08-04T01:11:06.093Z,21.78
2018-08-04T01:11:37.308Z,21.79
2018-08-04T01:12:08.488Z,21.81
2018-08-04T01:12:39.656Z,21.82
2018-08-04T01:13:10.825Z,21.82
2018-08-04T01:13:42.045Z,21.82
2018-08-04T01:14:13.245Z,21.84
2018-08-04T01:14:44.356Z,21.84
2018-08-04T01:15:15.527Z,21.81
2018-08-04T01:15:46.647Z,21.81
2018-08-04T01:16:17.755Z,21.79
2018-08-04T01:16:48.921Z,21.79
2018-08-04T01:17:20.084Z,21.80
2018-08-04T01:17:51.223Z,21.79
2018-08-04T01:18:22.449Z,21.79
2018-08-04T01:18:53.628Z,21.79
2018-08-04T01:19:24.734Z,21.79
2018-08-04T01:19:55.846Z,21.79
2018-08-04T01:20:27.008Z,21.77
2018-08-04T01:20:58.115Z,21.75
2018-08-04T01:21:29.290Z,21.75
2018-08-04T01:22:00.529Z,21.78
2018-08-04T01:22:31.655Z,21.79
2018-08-04T01:23:02.830Z,21.78
2018-08-04T01:23:33.971Z,21.79
2018-08-04T01:24:05.076Z,21.79
2018-08-04T01:24:36.249Z,21.79
2018-08-04T01:25:07.351Z,21.81
2018-08-04T01:25:38.522Z,21.82
2018-08-04T01:26:09.728Z,21.81
2018-08-04T01:26:40.913Z,21.85
2018-08-04T01:27:12.024Z,21.85
2018-08-04T01:27:43.193Z,21.84
2018-08-04T01:28:14.408Z,21.84
2018-08-04T01:28:45.525Z,21.83
2018-08-04T01:29:16.732Z,21.82
2018-08-04T01:29:47.843Z,21.82
2018-08-04T01:30:19.069Z,21.82
2018-08-04T01:30:50.300Z,21.81
2018-08-04T01:31:21.478Z,21.82
2018-08-04T01:31:52.644Z,21.82
2018-08-04T01:32:23.807Z,21.83
2018-08-04T01:32:55.018Z,21.79
2018-08-04T01:33:26.245Z,21.76
2018-08-04T01:33:57.380Z,21.71
2018-08-04T01:34:28.548Z,21.70
2018-08-04T01:34:59.678Z,21.68
2018-08-04T01:35:30.825Z,21.63
2018-08-04T01:36:01.980Z,21.62
2018-08-04T01:36:33.103Z,21.60
2018-08-04T01:37:04.269Z,21.58
2018-08-04T01:37:35.511Z,21.57
2018-08-04T01:38:06.734Z,21.54
2018-08-04T01:38:37.905Z,21.55
2018-08-04T01:39:09.023Z,21.54
2018-08-04T01:39:40.182Z,21.54
2018-08-04T01:40:11.297Z,21.53
2018-08-04T01:40:42.475Z,21.51
2018-08-04T01:41:13.635Z,21.49
2018-08-04T01:41:44.752Z,21.53
2018-08-04T01:42:15.912Z,21.54
2018-08-04T01:42:47.099Z,21.50
2018-08-04T01:43:18.328Z,21.48
2018-08-04T01:43:49.560Z,21.48
2018-08-04T01:44:20.678Z,21.48
2018-08-04T01:44:51.840Z,21.46
2018-08-04T01:45:23.038Z,21.43
2018-08-04T01:45:54.237Z,21.43
2018-08-04T01:46:25.346Z,21.43
2018-08-04T01:46:56.548Z,21.42
2018-08-04T01:47:27.721Z,21.40
2018-08-04T01:47:58.922Z,21.39
2018-08-04T01:48:30.027Z,21.39
2018-08-04T01:49:01.191Z,21.36
2018-08-04T01:49:32.420Z,21.38
2018-08-04T01:50:03.628Z,21.37
2018-08-04T01:50:34.766Z,21.38
2018-08-04T01:51:05.989Z,21.36
2018-08-04T01:51:37.154Z,21.35
2018-08-04T01:52:08.312Z,21.35
2018-08-04T01:52:39.488Z,21.31
2018-08-04T01:53:10.708Z,21.26
2018-08-04T01:53:41.883Z,21.22
2018-08-04T01:54:13.021Z,21.22
2018-08-04T01:54:44.134Z,21.19
2018-08-04T01:55:15.304Z,21.17
2018-08-04T01:55:46.484Z,21.15
2018-08-04T01:56:17.593Z,21.09
2018-08-04T01:56:48.795Z,21.05
2018-08-04T01:57:19.903Z,21.05
2018-08-04T01:57:51.007Z,21.05
2018-08-04T01:58:22.196Z,21.04
2018-08-04T01:58:53.313Z,21.07
2018-08-04T01:59:24.580Z,21.07
2018-08-04T01:59:55.748Z,21.05
2018-08-04T02:00:26.920Z,21.03
2018-08-04T02:00:58.058Z,21.01
2018-08-04T02:01:29.240Z,21.00
2018-08-04T02:02:00.407Z,21.00
2018-08-04T02:02:31.531Z,21.00
2018-08-04T02:03:02.637Z,21.00
2018-08-04T02:03:33.814Z,21.01
2018-08-04T02:04:04.984Z,21.03
2018-08-04T02:04:36.139Z,21.04
2018-08-04T02:05:07.284Z,21.07
2018-08-04T02:05:38.448Z,21.06
2018-08-04T02:06:09.629Z,21.08
2018-08-04T02:06:40.859Z,21.10
2018-08-04T02:07:12.145Z,21.09
2018-08-04T02:07:43.270Z,21.09
2018-08-04T02:08:14.437Z,21.08
2018-08-04T02:08:45.635Z,21.05
2018-08-04T02:09:16.739Z,21.05
2018-08-04T02:09:47.861Z,21.07
2018-08-04T02:10:19.131Z,21.07
2018-08-04T02:10:50.251Z,21.06
2018-08-04T02:11:21.434Z,21.07
2018-08-04T02:11:52.665Z,21.08
2018-08-04T02:12:23.841Z,21.04
2018-08-04T02:12:54.963Z,21.02
2018-08-04T02:13:26.076Z,20.99
2018-08-04T02:13:57.277Z,20.98
2018-08-04T02:14:28.452Z,20.97
2018-08-04T02:14:59.681Z,20.95
2018-08-04T02:15:30.800Z,20.94
2018-08-04T02:16:01.907Z,20.94
2018-08-04T02:16:33.030Z,20.92
2018-08-04T02:17:04.176Z,20.90
2018-08-04T02:17:35.292Z,20.88
2018-08-04T02:18:06.464Z,20.88
2018-08-04T02:18:37.661Z,20.87
2018-08-04T02:19:08.851Z,20.82
2018-08-04T02:19:40.037Z,20.81
2018-08-04T02:20:11.214Z,20.80
2018-08-04T02:20:42.318Z,20.78
2018-08-04T02:21:13.423Z,20.78
2018-08-04T02:21:44.537Z,20.74
2018-08-04T02:22:15.754Z,20.74
2018-08-04T02:22:46.874Z,20.74
2018-08-04T02:23:18.101Z,20.73
2018-08-04T02:23:49.228Z,20.73
2018-08-04T02:24:20.403Z,20.73
2018-08-04T02:24:51.519Z,20.73
2018-08-04T02:25:22.624Z,20.73
2018-08-04T02:25:53.803Z,20.74
2018-08-04T02:26:25.021Z,20.73
2018-08-04T02:26:56.258Z,20.74
2018-08-04T02:27:27.494Z,20.74
2018-08-04T02:27:58.676Z,20.73
2018-08-04T02:28:29.792Z,20.74
2018-08-04T02:29:01.014Z,20.76
2018-08-04T02:29:32.195Z,20.77
2018-08-04T02:30:03.422Z,20.76
2018-08-04T02:30:34.545Z,20.74
2018-08-04T02:31:05.717Z,20.74
2018-08-04T02:31:36.931Z,20.70
2018-08-04T02:32:08.051Z,20.66
2018-08-04T02:32:39.225Z,20.60
2018-08-04T02:33:10.380Z,20.57
2018-08-04T02:33:41.495Z,20.55
2018-08-04T02:34:12.659Z,20.53
2018-08-04T02:34:43.789Z,20.51
2018-08-04T02:35:14.904Z,20.52
2018-08-04T02:35:46.009Z,20.50
2018-08-04T02:36:17.125Z,20.48
2018-08-04T02:36:48.324Z,20.45
2018-08-04T02:37:19.520Z,20.48
2018-08-04T02:37:50.641Z,20.47
2018-08-04T02:38:21.809Z,20.46
2018-08-04T02:38:52.922Z,20.48
2018-08-04T02:39:24.104Z,20.50
2018-08-04T02:39:55.300Z,20.51
2018-08-04T02:40:26.416Z,20.51
2018-08-04T02:40:57.539Z,20.52
2018-08-04T02:41:28.711Z,20.53
2018-08-04T02:41:59.882Z,20.53
2018-08-04T02:42:31.076Z,20.54
2018-08-04T02:43:02.248Z,20.58
2018-08-04T02:43:33.428Z,20.61
2018-08-04T02:44:04.601Z,20.65
2018-08-04T02:44:35.722Z,20.67
2018-08-04T02:45:06.887Z,20.68
2018-08-04T02:45:38.053Z,20.66
2018-08-04T02:46:09.192Z,20.67
2018-08-04T02:46:40.306Z,20.69
2018-08-04T02:47:11.508Z,20.70
2018-08-04T02:47:42.694Z,20.69
2018-08-04T02:48:13.813Z,20.69
2018-08-04T02:48:44.932Z,20.70
2018-08-04T02:49:16.095Z,20.71
2018-08-04T02:49:47.326Z,20.72
2018-08-04T02:50:18.504Z,20.72
2018-08-04T02:50:49.668Z,20.73
2018-08-04T02:51:20.869Z,20.70
2018-08-04T02:51:52.052Z,20.67
2018-08-04T02:52:23.253Z,20.67
2018-08-04T02:52:54.366Z,20.66
2018-08-04T02:53:25.557Z,20.65
2018-08-04T02:53:56.667Z,20.64
2018-08-04T02:54:27.848Z,20.65
2018-08-04T02:54:59.020Z,20.61
2018-08-04T02:55:30.196Z,20.57
2018-08-04T02:56:01.312Z,20.57
2018-08-04T02:56:32.537Z,20.54
2018-08-04T02:57:03.656Z,20.54
2018-08-04T02:57:34.816Z,20.56
2018-08-04T02:58:05.992Z,20.54
2018-08-04T02:58:37.217Z,20.52
2018-08-04T02:59:08.466Z,20.52
2018-08-04T02:59:39.557Z,20.52
2018-08-04T03:00:10.675Z,20.55
2018-08-04T03:00:41.837Z,20.53
2018-08-04T03:01:12.966Z,20.53
2018-08-04T03:01:44.116Z,20.50
2018-08-04T03:02:15.251Z,20.46
2018-08-04T03:02:46.364Z,20.46
2018-08-04T03:03:17.473Z,20.47
2018-08-04T03:03:48.612Z,20.43
2018-08-04T03:04:19.783Z,20.43
2018-08-04T03:04:50.952Z,20.44
2018-08-04T03:05:22.145Z,20.44
2018-08-04T03:05:53.254Z,20.43
2018-08-04T03:06:24.425Z,20.43
2018-08-04T03:06:55.641Z,20.41
2018-08-04T03:07:26.809Z,20.39
2018-08-04T03:07:58.040Z,20.37
2018-08-04T03:08:29.321Z,20.36
2018-08-04T03:09:00.365Z,20.36
2018-08-04T03:09:31.536Z,20.35
2018-08-04T03:10:02.716Z,20.36
2018-08-04T03:10:33.882Z,20.34
2018-08-04T03:11:05.060Z,20.35
2018-08-04T03:11:36.244Z,20.31
2018-08-04T03:12:07.412Z,20.32
2018-08-04T03:12:38.535Z,20.31
2018-08-04T03:13:09.653Z,20.28
2018-08-04T03:13:40.795Z,20.28
2018-08-04T03:14:11.979Z,20.27
2018-08-04T03:14:43.173Z,20.27
2018-08-04T03:15:14.340Z,20.24
2018-08-04T03:15:45.456Z,20.24
2018-08-04T03:16:16.626Z,20.24
2018-08-04T03:16:47.865Z,20.24
2018-08-04T03:17:18.987Z,20.24
2018-08-04T03:17:50.220Z,20.25
2018-08-04T03:18:21.392Z,20.25
2018-08-04T03:18:52.564Z,20.26
2018-08-04T03:19:23.692Z,20.24
2018-08-04T03:19:54.812Z,20.20
2018-08-04T03:20:25.995Z,20.19
2018-08-04T03:20:57.182Z,20.15
2018-08-04T03:21:28.415Z,20.13
2018-08-04T03:21:59.527Z,20.11
2018-08-04T03:22:30.687Z,20.11
2018-08-04T03:23:01.854Z,20.11
2018-08-04T03:23:33.084Z,20.10
2018-08-04T03:24:04.301Z,20.11
2018-08-04T03:24:35.440Z,20.11
2018-08-04T03:25:06.572Z,20.13
2018-08-04T03:25:37.721Z,20.14
2018-08-04T03:26:08.853Z,20.16
2018-08-04T03:26:39.975Z,20.17
2018-08-04T03:27:11.153Z,20.19
2018-08-04T03:27:42.264Z,20.18
2018-08-04T03:28:13.375Z,20.18
2018-08-04T03:28:44.488Z,20.20
2018-08-04T03:29:15.769Z,20.20
2018-08-04T03:29:46.898Z,20.24
2018-08-04T03:30:18.033Z,20.28
2018-08-04T03:30:49.226Z,20.34
2018-08-04T03:31:20.404Z,20.40
2018-08-04T03:31:51.520Z,20.47
2018-08-04T03:32:22.635Z,20.53
2018-08-04T03:32:53.754Z,20.57
2018-08-04T03:33:24.987Z,20.60
2018-08-04T03:33:56.108Z,20.65
2018-08-04T03:34:27.254Z,20.67
2018-08-04T03:34:58.368Z,20.68
2018-08-04T03:35:29.549Z,20.72
2018-08-04T03:36:00.662Z,20.74
2018-08-04T03:36:31.823Z,20.69
2018-08-04T03:37:02.951Z,20.70
2018-08-04T03:37:34.063Z,20.73
2018-08-04T03:38:05.251Z,20.74
2018-08-04T03:38:36.448Z,20.73
2018-08-04T03:39:07.625Z,20.72
2018-08-04T03:39:38.831Z,20.75
2018-08-04T03:40:09.953Z,20.73
2018-08-04T03:40:41.073Z,20.73
2018-08-04T03:41:12.245Z,20.71
2018-08-04T03:41:43.464Z,20.66
2018-08-04T03:42:14.641Z,20.65
2018-08-04T03:42:45.770Z,20.61
2018-08-04T03:43:16.939Z,20.59
2018-08-04T03:43:48.113Z,20.59
2018-08-04T03:44:19.239Z,20.63
2018-08-04T03:44:50.404Z,20.62
2018-08-04T03:45:21.572Z,20.66
2018-08-04T03:45:52.679Z,20.69
2018-08-04T03:46:23.848Z,20.74
2018-08-04T03:46:55.021Z,20.77
2018-08-04T03:47:26.123Z,20.78
2018-08-04T03:47:57.238Z,20.80
2018-08-04T03:48:28.399Z,20.77
2018-08-04T03:48:59.624Z,20.75
2018-08-04T03:49:30.739Z,20.73
2018-08-04T03:50:01.974Z,20.67
2018-08-04T03:50:33.088Z,20.68
2018-08-04T03:51:04.306Z,20.66
2018-08-04T03:51:35.456Z,20.68
2018-08-04T03:52:06.617Z,20.67
2018-08-04T03:52:37.774Z,20.65
2018-08-04T03:53:08.993Z,20.65
2018-08-04T03:53:40.160Z,20.64
2018-08-04T03:54:11.401Z,20.62
2018-08-04T03:54:42.640Z,20.58
2018-08-04T03:55:13.868Z,20.57
2018-08-04T03:55:45.047Z,20.58
2018-08-04T03:56:16.160Z,20.58
2018-08-04T03:56:47.325Z,20.56
2018-08-04T03:57:18.506Z,20.57
2018-08-04T03:57:49.711Z,20.57
2018-08-04T03:58:20.881Z,20.58
2018-08-04T03:58:52.061Z,20.57
2018-08-04T03:59:23.185Z,20.59
2018-08-04T03:59:54.297Z,20.61
2018-08-04T04:00:25.498Z,20.63
2018-08-04T04:00:56.672Z,20.62
2018-08-04T04:01:27.852Z,20.61
2018-08-04T04:01:58.959Z,20.62
2018-08-04T04:02:30.124Z,20.63
2018-08-04T04:03:01.293Z,20.64
2018-08-04T04:03:32.473Z,20.66
2018-08-04T04:04:03.593Z,20.66
2018-08-04T04:04:34.715Z,20.65
2018-08-04T04:05:05.889Z,20.64
2018-08-04T04:05:37.092Z,20.65
2018-08-04T04:06:08.266Z,20.63
2018-08-04T04:06:39.508Z,20.62
2018-08-04T04:07:10.766Z,20.59
2018-08-04T04:07:41.971Z,20.57
2018-08-04T04:08:13.205Z,20.55
2018-08-04T04:08:44.328Z,20.55
2018-08-04T04:09:15.496Z,20.59
2018-08-04T04:09:46.608Z,20.61
2018-08-04T04:10:17.820Z,20.60
2018-08-04T04:10:48.977Z,20.64
2018-08-04T04:11:20.167Z,20.68
2018-08-04T04:11:51.328Z,20.69
2018-08-04T04:12:22.544Z,20.72
2018-08-04T04:12:53.651Z,20.73
2018-08-04T04:13:24.816Z,20.76
2018-08-04T04:13:55.997Z,20.78
2018-08-04T04:14:27.127Z,20.77
2018-08-04T04:14:58.296Z,20.80
2018-08-04T04:15:29.443Z,20.81
2018-08-04T04:16:00.594Z,20.85
2018-08-04T04:16:31.768Z,20.87
2018-08-04T04:17:02.937Z,20.84
2018-08-04T04:17:34.112Z,20.86
2018-08-04T04:18:05.231Z,20.89
2018-08-04T04:18:36.346Z,20.90
2018-08-04T04:19:07.567Z,20.92
2018-08-04T04:19:38.687Z,20.93
2018-08-04T04:20:09.847Z,20.94
2018-08-04T04:20:41.060Z,20.94
2018-08-04T04:21:12.173Z,20.92
2018-08-04T04:21:43.341Z,20.94
2018-08-04T04:22:14.455Z,20.94
2018-08-04T04:22:45.673Z,20.91
2018-08-04T04:23:16.792Z,20.92
2018-08-04T04:23:47.904Z,20.95
2018-08-04T04:24:19.062Z,20.99
2018-08-04T04:24:50.184Z,21.03
2018-08-04T04:25:21.409Z,21.08
2018-08-04T04:25:52.556Z,21.11
2018-08-04T04:26:23.724Z,21.12
2018-08-04T04:26:54.896Z,21.11
2018-08-04T04:27:26.060Z,21.11
2018-08-04T04:27:57.171Z,21.14
2018-08-04T04:28:28.323Z,21.14
2018-08-04T04:28:59.434Z,21.18
2018-08-04T04:29:30.601Z,21.21
2018-08-04T04:30:01.787Z,21.27
2018-08-04T04:30:32.900Z,21.30
2018-08-04T04:31:04.027Z,21.36
2018-08-04T04:31:35.240Z,21.41
2018-08-04T04:32:06.355Z,21.46
2018-08-04T04:32:37.465Z,21.48
2018-08-04T04:33:08.697Z,21.53
2018-08-04T04:33:39.837Z,21.59
2018-08-04T04:34:10.945Z,21.68
2018-08-04T04:34:42.064Z,21.75
2018-08-04T04:35:13.231Z,21.83
2018-08-04T04:35:44.401Z,21.94
2018-08-04T04:36:15.519Z,22.08
2018-08-04T04:36:46.833Z,22.27
2018-08-04T04:37:18.013Z,22.53
2018-08-04T04:37:49.135Z,22.78
2018-08-04T04:38:20.248Z,22.97
2018-08-04T04:38:51.425Z,23.10
2018-08-04T04:39:22.537Z,23.15
2018-08-04T04:39:53.648Z,23.03
2018-08-04T04:40:24.807Z,22.93
2018-08-04T04:40:55.934Z,22.81
2018-08-04T04:41:27.106Z,22.75
2018-08-04T04:41:58.374Z,22.64
2018-08-04T04:42:29.491Z,22.61
2018-08-04T04:43:00.608Z,22.71
2018-08-04T04:43:31.771Z,22.84
2018-08-04T04:44:02.965Z,22.92
2018-08-04T04:44:34.189Z,22.88
2018-08-04T04:45:05.453Z,22.89
2018-08-04T04:45:36.628Z,23.01
2018-08-04T04:46:07.750Z,23.22
2018-08-04T04:46:38.872Z,23.28
2018-08-04T04:47:10.113Z,23.46
2018-08-04T04:47:41.350Z,23.65
2018-08-04T04:48:12.626Z,23.99
2018-08-04T04:48:43.856Z,24.36
2018-08-04T04:49:14.993Z,24.76
2018-08-04T04:49:46.167Z,25.15
2018-08-04T04:50:17.345Z,25.46
2018-08-04T04:50:48.535Z,25.73
2018-08-04T04:51:19.700Z,26.00
2018-08-04T04:51:50.873Z,26.24
2018-08-04T04:52:22.007Z,26.41
2018-08-04T04:52:53.172Z,26.50
2018-08-04T04:53:24.380Z,26.50
2018-08-04T04:53:55.516Z,26.68
2018-08-04T04:54:26.675Z,26.86
2018-08-04T04:54:57.856Z,27.08
2018-08-04T04:55:29.055Z,27.25
2018-08-04T04:56:00.194Z,27.33
2018-08-04T04:56:31.372Z,27.52
2018-08-04T04:57:02.480Z,27.74
2018-08-04T04:57:33.655Z,27.96
2018-08-04T04:58:04.833Z,28.21
2018-08-04T04:58:35.955Z,28.23
2018-08-04T04:59:07.071Z,28.37
2018-08-04T04:59:38.223Z,28.24
2018-08-04T05:00:09.438Z,28.04
2018-08-04T05:00:40.551Z,28.12
2018-08-04T05:01:11.785Z,28.32
2018-08-04T05:01:42.972Z,28.55
2018-08-04T05:02:14.102Z,28.69
2018-08-04T05:02:45.231Z,28.85
2018-08-04T05:03:16.388Z,29.04
2018-08-04T05:03:47.519Z,29.16
2018-08-04T05:04:18.752Z,29.32
2018-08-04T05:04:49.932Z,29.42
2018-08-04T05:05:21.233Z,29.51
2018-08-04T05:05:52.473Z,29.65
2018-08-04T05:06:23.698Z,29.70
2018-08-04T05:06:54.829Z,29.53
2018-08-04T05:07:26.016Z,29.66
2018-08-04T05:07:57.188Z,29.77
2018-08-04T05:08:28.404Z,29.81
2018-08-04T05:08:59.592Z,29.83
2018-08-04T05:09:30.760Z,29.80
2018-08-04T05:10:01.881Z,29.76
2018-08-04T05:10:33.000Z,29.52
2018-08-04T05:11:04.137Z,29.70
2018-08-04T05:11:35.293Z,29.81
2018-08-04T05:12:06.566Z,29.88
2018-08-04T05:12:37.785Z,29.67
2018-08-04T05:13:09.030Z,29.74
2018-08-04T05:13:40.154Z,29.86
2018-08-04T05:14:11.321Z,29.91
2018-08-04T05:14:42.495Z,29.81
2018-08-04T05:15:13.717Z,29.92
2018-08-04T05:15:44.959Z,29.95
2018-08-04T05:16:16.188Z,29.94
2018-08-04T05:16:47.318Z,29.73
2018-08-04T05:17:18.542Z,29.59
2018-08-04T05:17:49.698Z,29.47
2018-08-04T05:18:20.938Z,29.46
2018-08-04T05:18:52.198Z,29.35
2018-08-04T05:19:23.360Z,29.39
2018-08-04T05:19:54.618Z,29.50
2018-08-04T05:20:25.793Z,29.57
2018-08-04T05:20:57.025Z,29.49
2018-08-04T05:21:28.196Z,29.55
2018-08-04T05:21:59.404Z,29.55
2018-08-04T05:22:30.584Z,29.67
2018-08-04T05:23:01.737Z,29.61
2018-08-04T05:23:32.924Z,29.68
2018-08-04T05:24:04.092Z,29.82
2018-08-04T05:24:35.268Z,29.71
2018-08-04T05:25:06.433Z,29.99
2018-08-04T05:25:37.596Z,29.94
2018-08-04T05:26:08.861Z,29.98
2018-08-04T05:26:40.093Z,29.94
2018-08-04T05:27:11.240Z,29.96
2018-08-04T05:27:42.404Z,29.77
2018-08-04T05:28:13.637Z,29.56
2018-08-04T05:28:44.810Z,29.84
2018-08-04T05:29:16.047Z,29.98
2018-08-04T05:29:47.168Z,30.09
2018-08-04T05:30:18.377Z,30.24
2018-08-04T05:30:49.490Z,30.39
2018-08-04T05:31:20.625Z,30.19
2018-08-04T05:31:51.838Z,30.06
2018-08-04T05:32:23.004Z,30.00
2018-08-04T05:32:54.173Z,30.27
2018-08-04T05:33:25.289Z,30.33
2018-08-04T05:33:56.440Z,30.33
2018-08-04T05:34:27.611Z,30.15
2018-08-04T05:34:58.730Z,30.29
2018-08-04T05:35:29.878Z,30.38
2018-08-04T05:36:01.022Z,30.38
2018-08-04T05:36:32.208Z,30.40
2018-08-04T05:37:03.399Z,30.36
2018-08-04T05:37:34.578Z,30.20
2018-08-04T05:38:05.687Z,30.33
2018-08-04T05:38:36.799Z,30.17
2018-08-04T05:39:07.951Z,30.12
2018-08-04T05:39:39.066Z,30.27
2018-08-04T05:40:10.259Z,30.09
2018-08-04T05:40:41.368Z,30.04
2018-08-04T05:41:12.593Z,30.11
2018-08-04T05:41:43.832Z,30.23
2018-08-04T05:42:14.940Z,30.26
2018-08-04T05:42:46.105Z,30.35
2018-08-04T05:43:17.265Z,30.29
2018-08-04T05:43:48.373Z,30.16
2018-08-04T05:44:19.487Z,29.97
2018-08-04T05:44:50.662Z,29.87
2018-08-04T05:45:21.839Z,29.83
2018-08-04T05:45:52.955Z,29.73
2018-08-04T05:46:24.077Z,29.58
2018-08-04T05:46:55.227Z,29.47
2018-08-04T05:47:26.409Z,29.51
2018-08-04T05:47:57.624Z,29.48
2018-08-04T05:48:28.793Z,29.54
2018-08-04T05:48:59.972Z,29.56
2018-08-04T05:49:31.169Z,29.55
2018-08-04T05:50:02.480Z,29.51
2018-08-04T05:50:33.578Z,29.54
2018-08-04T05:51:04.683Z,29.57
2018-08-04T05:51:35.853Z,29.58
2018-08-04T05:52:06.975Z,29.45
2018-08-04T05:52:38.174Z,29.32
2018-08-04T05:53:09.389Z,29.21
2018-08-04T05:53:40.564Z,29.08
2018-08-04T05:54:11.738Z,28.92
2018-08-04T05:54:42.852Z,28.79
2018-08-04T05:55:14.075Z,28.67
2018-08-04T05:55:45.248Z,28.58
2018-08-04T05:56:16.363Z,28.46
2018-08-04T05:56:47.524Z,28.35
2018-08-04T05:57:18.722Z,28.34
2018-08-04T05:57:49.863Z,28.42
2018-08-04T05:58:20.983Z,28.39
2018-08-04T05:58:52.107Z,28.32
2018-08-04T05:59:23.216Z,28.29
2018-08-04T05:59:54.393Z,28.33
2018-08-04T06:00:25.562Z,28.37
2018-08-04T06:00:56.744Z,28.40
2018-08-04T06:01:27.861Z,28.39
2018-08-04T06:01:59.094Z,28.42
2018-08-04T06:02:30.207Z,28.51
2018-08-04T06:03:01.315Z,28.48
2018-08-04T06:03:32.432Z,28.49
2018-08-04T06:04:03.576Z,28.58
2018-08-04T06:04:34.690Z,28.62
2018-08-04T06:05:05.800Z,28.76
2018-08-04T06:05:36.988Z,28.85
2018-08-04T06:06:08.212Z,28.90
2018-08-04T06:06:39.404Z,28.91
2018-08-04T06:07:10.569Z,28.90
2018-08-04T06:07:41.742Z,28.86
2018-08-04T06:08:12.912Z,28.82
2018-08-04T06:08:44.092Z,28.78
2018-08-04T06:09:15.316Z,28.71
2018-08-04T06:09:46.553Z,28.67
2018-08-04T06:10:17.684Z,28.59
2018-08-04T06:10:48.816Z,28.49
2018-08-04T06:11:19.994Z,28.45
2018-08-04T06:11:51.179Z,28.45
2018-08-04T06:12:22.335Z,28.47
2018-08-04T06:12:53.541Z,28.40
2018-08-04T06:13:24.663Z,28.27
2018-08-04T06:13:55.779Z,28.19
2018-08-04T06:14:26.891Z,28.29
2018-08-04T06:14:58.012Z,28.34
2018-08-04T06:15:29.152Z,28.37
2018-08-04T06:16:00.332Z,28.28
2018-08-04T06:16:31.444Z,28.21
2018-08-04T06:17:02.619Z,28.13
2018-08-04T06:17:33.822Z,28.08
2018-08-04T06:18:04.989Z,28.11
2018-08-04T06:18:36.108Z,28.11
2018-08-04T06:19:07.275Z,28.07
2018-08-04T06:19:38.400Z,28.10
2018-08-04T06:20:09.506Z,28.20
2018-08-04T06:20:40.697Z,28.24
2018-08-04T06:21:11.810Z,28.24
2018-08-04T06:21:42.980Z,28.19
2018-08-04T06:22:14.191Z,28.15
2018-08-04T06:22:45.307Z,28.14
2018-08-04T06:23:16.590Z,28.15
2018-08-04T06:23:47.713Z,28.16
2018-08-04T06:24:18.852Z,28.08
2018-08-04T06:24:49.978Z,28.10
2018-08-04T06:25:21.095Z,27.98
2018-08-04T06:25:52.250Z,27.93
2018-08-04T06:26:23.417Z,28.07
2018-08-04T06:26:54.609Z,28.09
2018-08-04T06:27:25.775Z,28.10
2018-08-04T06:27:56.998Z,28.03
2018-08-04T06:28:28.112Z,28.05
2018-08-04T06:28:59.290Z,28.01
2018-08-04T06:29:30.427Z,28.00
2018-08-04T06:30:01.531Z,28.00
2018-08-04T06:30:32.705Z,28.05
2018-08-04T06:31:03.882Z,28.00
2018-08-04T06:31:35.044Z,28.02
2018-08-04T06:32:06.164Z,28.06
2018-08-04T06:32:37.386Z,28.03
2018-08-04T06:33:08.578Z,27.91
2018-08-04T06:33:39.699Z,27.91
2018-08-04T06:34:10.814Z,27.88
2018-08-04T06:34:42.001Z,27.87
2018-08-04T06:35:13.224Z,27.83
2018-08-04T06:35:44.412Z,27.77
2018-08-04T06:36:15.524Z,27.75
2018-08-04T06:36:46.650Z,27.80
2018-08-04T06:37:17.760Z,27.89
2018-08-04T06:37:48.952Z,27.91
2018-08-04T06:38:20.080Z,28.05
2018-08-04T06:38:51.187Z,28.21
2018-08-04T06:39:22.312Z,28.36
2018-08-04T06:39:53.442Z,28.47
2018-08-04T06:40:24.563Z,28.55
2018-08-04T06:40:55.746Z,28.56
2018-08-04T06:41:26.925Z,28.54